Flight Track Log - Related Links

Times and Time Zones

All times are in EDT time to prevent confusion due to time zone crossing. See the EJA131 flight status page for this flight to view local times or setup timezone preferences in your user account.

Time Position Orientation Groundspeed Altitude Reporting Facility
EDT Latitude Longitude Course Direction KTS MPH feet Rate Location/Type
Tue 06:37:54 PM 39.6731 -86.3197 209° Southwest 134 154 3,300  Level Indianapolis Center
Tue 06:38:56 PM 39.6189 -86.2981 163° South 210 242 6,800 3,339 Climbing Indianapolis Center
Tue 06:39:58 PM 39.6436 -86.1917 73° East 253 291 10,200 2,661 Climbing Indianapolis Center
Tue 06:41:00 PM 39.6703 -86.0928 71° East 290 334 12,300 1,984 Climbing Indianapolis Center
Tue 06:42:02 PM 39.7000 -85.9792 71° East 328 377 14,300 1,887 Climbing Indianapolis Center
Tue 06:43:04 PM 39.7308 -85.8586 72° East 348 400 16,200 2,032 Climbing Indianapolis Center
Tue 06:44:06 PM 39.7692 -85.7053 72° East 369 425 18,500 1,935 Climbing Indianapolis Center
Tue 06:45:08 PM 39.8022 -85.5742 72° East 381 438 20,200 1,694 Climbing Indianapolis Center
Tue 06:46:10 PM 39.8347 -85.4381 73° East 394 453 22,000 1,710 Climbing Indianapolis Center
Tue 06:48:14 PM 39.8656 -85.1525 82° East 400 460 25,500 1,645 Climbing Indianapolis Center
Tue 06:49:16 PM 39.8800 -85.0089 82° East 402 463 27,100 1,306 Climbing Indianapolis Center
Tue 06:50:18 PM 39.9014 -84.8394 81° East 416 479 28,200 1,016 Climbing Indianapolis Center
Tue 06:51:20 PM 39.9206 -84.6814 81° East 435 501 29,200 968 Climbing Indianapolis Center
Tue 06:52:22 PM 39.9397 -84.5214 81° East 443 510 30,200 871 Climbing Indianapolis Center
Tue 06:53:24 PM 39.9589 -84.3569 81° East 453 521 31,000 864 Climbing Indianapolis Center
Tue 06:54:27 PM 39.9817 -84.1608 81° East 463 533 32,000 864 Climbing Indianapolis Center
Tue 06:55:29 PM 40.0017 -83.9903 81° East 469 540 32,800 774 Climbing Indianapolis Center
Tue 06:56:31 PM 40.0208 -83.8172 82° East 474 545 33,600 774 Climbing Indianapolis Center
Tue 06:57:33 PM 40.0342 -83.6433 84° East 476 548 34,400 774 Climbing Indianapolis Center
Tue 06:58:35 PM 40.0164 -83.4683 98° East 475 547 35,200 726 Climbing Indianapolis Center
Tue 06:59:37 PM 39.9967 -83.2928 98° East 477 549 35,900 581 Climbing Indianapolis Center
Tue 07:00:39 PM 39.9761 -83.1200 99° East 475 547 36,400 532 Climbing Indianapolis Center
Tue 07:01:41 PM 39.9561 -82.9475 99° East 476 548 37,000 677 Climbing Indianapolis Center
Tue 07:02:43 PM 39.9361 -82.7767 99° East 474 545 37,800 726 Climbing Indianapolis Center
Tue 07:03:45 PM 39.9164 -82.6061 99° East 472 543 38,500 677 Climbing Indianapolis Center
Tue 07:04:47 PM 39.8961 -82.4389 99° East 467 537 39,200 774 Climbing Indianapolis Center
Tue 07:05:49 PM 39.8733 -82.2439 99° East 464 534 40,100 774 Climbing Indianapolis Center
Tue 07:06:51 PM 39.8525 -82.0803 99° East 458 527 40,800 435 Climbing Indianapolis Center
Tue 07:07:53 PM 39.8339 -81.9192 99° East 449 517 41,000 97 Climbing Indianapolis Center
Tue 07:08:55 PM 39.8133 -81.7550 99° East 454 522 41,000  Level Indianapolis Center
Tue 07:09:57 PM 39.7922 -81.5881 99° East 461 531 41,000  Level Indianapolis Center
Tue 07:10:59 PM 39.7681 -81.4117 100° East 470 541 41,000  Level Indianapolis Center
Tue 07:12:01 PM 39.7450 -81.2372 100° East 484 557 41,000  Level Indianapolis Center
Tue 07:13:03 PM 39.7231 -81.0636 99° East 486 559 41,000  Level Indianapolis Center
Tue 07:14:05 PM 39.7003 -80.8908 100° East 484 557 41,000  Level Indianapolis Center
Tue 07:15:07 PM 39.6717 -80.6847 100° East 483 556 41,000 -97 Level Indianapolis Center
Tue 07:16:09 PM 39.6481 -80.5142 100° East 479 551 40,800 -726 Descending Indianapolis Center
Tue 07:17:11 PM 39.6206 -80.3383 101° East 491 565 39,500 -1,258 Descending Indianapolis Center
Tue 07:18:13 PM 39.5936 -80.1603 101° East 500 575 38,200 -1,887 Descending Indianapolis Center
Tue 07:19:15 PM 39.5631 -79.9833 103° East 503 579 35,600 -2,672 Descending Indianapolis Center
Tue 07:20:30 PM 39.5331 -79.7650 100° East 506 582 32,100 -2,912 Descending Washington Center
Tue 07:21:31 PM 39.5036 -79.5911 102° East 511 588 29,000 -2,571 Descending Washington Center
Tue 07:22:29 PM 39.4758 -79.4147 101° East 501 577 27,000 -1,576 Descending Washington Center
Tue 07:23:29 PM 39.4422 -79.2222 103° East 496 571 25,900 -1,770 Descending Washington Center
Tue 07:24:31 PM 39.4117 -79.0569 103° East 488 562 23,400 -2,300 Descending Washington Center
Tue 07:25:29 PM 39.3869 -78.9053 102° East 458 527 21,300 -2,186 Descending Washington Center
Tue 07:26:29 PM 39.3575 -78.7589 105° East 435 501 19,100 -2,132 Descending Washington Center
Tue 07:27:30 PM 39.3339 -78.6183 102° East 418 481 17,000 -1,967 Descending Washington Center
Tue 07:28:31 PM 39.3100 -78.4914 104° East 399 459 15,100 -1,831 Descending Washington Center
Tue 07:29:28 PM 39.2839 -78.3642 105° East 371 427 13,400 -1,831 Descending Washington Center
Tue 07:30:29 PM 39.2300 -78.2575 123° Southeast 357 411 11,500 -1,525 Descending Washington Center
Tue 07:31:30 PM 39.1778 -78.1619 125° Southeast 344 396 10,300 -738 Descending Washington Center
Tue 07:32:31 PM 39.1297 -78.0694 124° Southeast 330 380 10,000 -537 Descending Washington Center
Tue 07:33:33 PM 39.0794 -77.9767 125° Southeast 320 368 9,200 -1,311 Descending Washington Center
Tue 07:34:30 PM 39.0311 -77.8844 124° Southeast 320 368 7,400 -1,119 Descending Washington Center
Tue 07:35:31 PM 38.9847 -77.8000 125° Southeast 302 348 7,000 -706 Descending Washington Center
Tue 07:36:29 PM 38.9636 -77.7114 107° East 285 328 6,000 -1,210 Descending Washington Center
Tue 07:37:30 PM 38.9211 -77.6275 123° Southeast 267 307 4,600 -1,041 Descending Washington Center
Tue 07:38:30 PM 38.8675 -77.5967 156° South 239 275 3,900 -727 Descending Washington Center
Tue 07:39:42 PM 38.8167 -77.5167 129° Southeast 178 205 3,000 -619 Descending Potomac TRACON
Tue 07:40:36 PM 38.8333 -77.4667 67° East 166 191 2,600 -684 Descending Potomac TRACON
Tue 07:41:36 PM 38.8667 -77.4333 38° Northeast 152 175 1,700 -850 Descending Potomac TRACON
Tue 07:42:36 PM 38.9000 -77.4333 360° North 129 148 900 -800 Descending Potomac TRACON
Tue 07:44:00 PM 38.9333 -77.4500 339° North  Level FlightAware Approximate
Tue 07:51:00 PM 38.9474 -77.4599 339° North  Level Estimated
Tue 07:52:00 PM 38.9474 -77.4599 339° North  Level Estimated
Tue 07:53:00 PM 38.9474 -77.4599 339° North  Level Estimated
Tue 07:54:00 PM 38.9474 -77.4599 339° North  Level Estimated
Tue 07:55:00 PM 38.9474 -77.4599 339° North  Level Estimated
Tue 07:56:00 PM 38.9474 -77.4599 339° North  Level Estimated

Login

Don't have an account? Register now (free) for customized features, flight alerts, and more!